createdAt,value
2018-03-07T00:00:49.415Z,12.00
2018-03-07T00:01:49.365Z,8.00
2018-03-07T00:02:49.322Z,8.00
2018-03-07T00:03:49.296Z,8.00
2018-03-07T00:04:49.288Z,4.00
2018-03-07T00:05:49.993Z,4.00
2018-03-07T00:06:49.263Z,4.00
2018-03-07T00:07:49.214Z,0.00
2018-03-07T00:08:49.188Z,4.00
2018-03-07T00:09:49.293Z,0.00
2018-03-07T00:10:49.397Z,4.00
2018-03-07T00:11:49.114Z,0.00
2018-03-07T00:12:49.085Z,0.00
2018-03-07T00:13:49.071Z,0.00
2018-03-07T00:14:49.063Z,0.00
2018-03-07T00:15:49.229Z,0.00
2018-03-07T00:16:48.999Z,0.00
2018-03-07T00:17:49.006Z,0.00
2018-03-07T00:18:48.945Z,0.00
2018-03-07T00:19:48.949Z,0.00
2018-03-07T00:20:49.091Z,0.00
2018-03-07T00:21:48.850Z,0.00
2018-03-07T00:22:48.859Z,0.00
2018-03-07T00:23:48.834Z,0.00
2018-03-07T00:24:48.771Z,0.00
2018-03-07T00:25:48.993Z,0.00
2018-03-07T00:26:48.746Z,0.00
2018-03-07T00:27:48.734Z,0.00
2018-03-07T00:28:48.696Z,0.00
2018-03-07T00:29:48.714Z,0.00
2018-03-07T00:30:48.689Z,0.00
2018-03-07T00:31:48.778Z,0.00
2018-03-07T00:32:48.590Z,0.00
2018-03-07T00:33:48.588Z,0.00
2018-03-07T00:34:48.538Z,0.00
2018-03-07T00:35:49.066Z,0.00
2018-03-07T00:36:48.557Z,0.00
2018-03-07T00:37:48.672Z,0.00
2018-03-07T00:38:48.451Z,0.00
2018-03-07T00:39:48.421Z,0.00
2018-03-07T00:40:48.388Z,0.00
2018-03-07T00:41:48.383Z,0.00
2018-03-07T00:42:48.350Z,0.00
2018-03-07T00:43:48.945Z,0.00
2018-03-07T00:44:48.323Z,0.00
2018-03-07T00:45:48.301Z,0.00
2018-03-07T00:46:48.241Z,0.00
2018-03-07T00:47:48.238Z,0.00
2018-03-07T00:48:48.748Z,0.00
2018-03-07T00:49:48.307Z,0.00
2018-03-07T00:50:48.170Z,0.00
2018-03-07T00:51:48.165Z,0.00
2018-03-07T00:52:48.108Z,0.00
2018-03-07T00:53:48.080Z,0.00
2018-03-07T00:54:48.210Z,0.00
2018-03-07T00:55:48.017Z,0.00
2018-03-07T00:56:47.997Z,0.00
2018-03-07T00:57:47.977Z,0.00
2018-03-07T00:58:47.930Z,0.00
2018-03-07T00:59:48.099Z,0.00
2018-03-07T01:00:47.935Z,0.00
2018-03-07T01:01:47.867Z,0.00
2018-03-07T01:02:47.844Z,0.00
2018-03-07T01:03:47.831Z,0.00
2018-03-07T01:04:47.937Z,0.00
2018-03-07T01:05:47.782Z,0.00
2018-03-07T01:06:47.749Z,0.00
2018-03-07T01:07:48.238Z,0.00
2018-03-07T01:08:48.296Z,0.00
2018-03-07T01:09:47.723Z,0.00
2018-03-07T01:10:47.820Z,0.00
2018-03-07T01:11:48.156Z,0.00
2018-03-07T01:12:48.118Z,0.00
2018-03-07T01:13:47.592Z,0.00
2018-03-07T01:14:48.126Z,0.00
2018-03-07T01:15:47.760Z,0.00
2018-03-07T01:16:48.257Z,0.00
2018-03-07T01:17:48.021Z,0.00
2018-03-07T01:18:47.435Z,0.00
2018-03-07T01:19:47.438Z,0.00
2018-03-07T01:20:47.397Z,0.00
2018-03-07T01:21:47.380Z,0.00
2018-03-07T01:22:47.503Z,0.00
2018-03-07T01:23:47.322Z,0.00
2018-03-07T01:24:47.281Z,0.00
2018-03-07T01:25:47.794Z,0.00
2018-03-07T01:26:47.241Z,0.00
2018-03-07T01:27:47.357Z,0.00
2018-03-07T01:28:47.667Z,0.00
2018-03-07T01:29:47.144Z,0.00
2018-03-07T01:30:47.133Z,0.00
2018-03-07T01:31:47.113Z,0.00
2018-03-07T01:32:47.227Z,0.00
2018-03-07T01:33:47.089Z,0.00
2018-03-07T01:34:47.041Z,0.00
2018-03-07T01:35:47.010Z,0.00
2018-03-07T01:36:47.085Z,0.00
2018-03-07T01:37:47.641Z,0.00
2018-03-07T01:38:46.931Z,0.00
2018-03-07T01:39:46.903Z,0.00
2018-03-07T01:40:46.876Z,0.00
2018-03-07T01:41:46.882Z,0.00
2018-03-07T01:42:47.517Z,0.00
2018-03-07T01:43:47.733Z,0.00
2018-03-07T01:44:47.231Z,0.00
2018-03-07T01:45:47.282Z,0.00
2018-03-07T01:46:47.314Z,0.00
2018-03-07T01:47:46.751Z,0.00
2018-03-07T01:48:46.846Z,0.00
2018-03-07T01:49:46.626Z,0.00
2018-03-07T01:50:47.130Z,0.00
2018-03-07T01:51:47.126Z,0.00
2018-03-07T01:52:47.130Z,0.00
2018-03-07T01:54:47.096Z,0.00
2018-03-07T01:55:46.488Z,0.00
2018-03-07T01:56:46.994Z,0.00
2018-03-07T01:57:46.456Z,0.00
2018-03-07T01:58:46.408Z,0.00
2018-03-07T01:59:46.534Z,0.00
2018-03-07T02:00:46.341Z,0.00
2018-03-07T02:01:46.331Z,0.00
2018-03-07T02:02:46.885Z,0.00
2018-03-07T02:03:46.807Z,0.00
2018-03-07T02:04:46.798Z,0.00
2018-03-07T02:05:46.969Z,0.00
2018-03-07T02:06:46.813Z,0.00
2018-03-07T02:07:47.007Z,0.00
2018-03-07T02:08:46.159Z,0.00
2018-03-07T02:09:46.558Z,0.00
2018-03-07T02:10:46.744Z,0.00
2018-03-07T02:11:46.553Z,0.00
2018-03-07T02:12:46.036Z,0.00
2018-03-07T02:13:46.603Z,0.00
2018-03-07T02:14:46.602Z,0.00
2018-03-07T02:15:46.185Z,0.00
2018-03-07T02:16:46.845Z,0.00
2018-03-07T02:17:45.983Z,0.00
2018-03-07T02:18:45.903Z,0.00
2018-03-07T02:19:45.850Z,0.00
2018-03-07T02:20:45.884Z,0.00
2018-03-07T02:21:45.938Z,0.00
2018-03-07T02:22:45.786Z,0.00
2018-03-07T02:23:45.751Z,0.00
2018-03-07T02:24:45.728Z,0.00
2018-03-07T02:25:45.907Z,0.00
2018-03-07T02:26:46.271Z,0.00
2018-03-07T02:27:45.861Z,0.00
2018-03-07T02:28:46.047Z,0.00
2018-03-07T02:29:45.900Z,0.00
2018-03-07T02:30:46.105Z,0.00
2018-03-07T02:31:45.546Z,0.00
2018-03-07T02:32:46.228Z,0.00
2018-03-07T02:33:46.014Z,0.00
2018-03-07T02:34:45.993Z,0.00
2018-03-07T02:35:45.952Z,0.00
2018-03-07T02:36:45.945Z,0.00
2018-03-07T02:37:45.818Z,0.00
2018-03-07T02:38:46.446Z,0.00
2018-03-07T02:39:45.351Z,0.00
2018-03-07T02:40:45.957Z,0.00
2018-03-07T02:41:45.275Z,0.00
2018-03-07T02:42:45.759Z,0.00
2018-03-07T02:43:45.205Z,0.00
2018-03-07T02:44:45.372Z,0.00
2018-03-07T02:45:45.167Z,0.00
2018-03-07T02:46:45.679Z,0.00
2018-03-07T02:47:45.123Z,0.00
2018-03-07T02:48:45.100Z,0.00
2018-03-07T02:49:45.807Z,0.00
2018-03-07T02:50:45.053Z,0.00
2018-03-07T02:51:45.014Z,0.00
2018-03-07T02:52:44.973Z,0.00
2018-03-07T02:53:45.043Z,0.00
2018-03-07T02:54:45.521Z,0.00
2018-03-07T02:55:45.096Z,0.00
2018-03-07T02:56:44.877Z,0.00
2018-03-07T02:57:44.923Z,0.00
2018-03-07T02:58:44.827Z,0.00
2018-03-07T02:59:44.829Z,0.00
2018-03-07T03:00:44.819Z,0.00
2018-03-07T03:01:44.906Z,0.00
2018-03-07T03:02:45.127Z,0.00
2018-03-07T03:03:44.753Z,0.00
2018-03-07T03:04:44.686Z,0.00
2018-03-07T03:05:45.177Z,0.00
2018-03-07T03:06:44.774Z,0.00
2018-03-07T03:07:45.195Z,0.00
2018-03-07T03:08:45.015Z,0.00
2018-03-07T03:09:45.137Z,0.00
2018-03-07T03:10:44.513Z,0.00
2018-03-07T03:11:45.176Z,0.00
2018-03-07T03:12:44.436Z,0.00
2018-03-07T03:13:44.410Z,0.00
2018-03-07T03:14:44.959Z,0.00
2018-03-07T03:15:44.796Z,0.00
2018-03-07T03:16:44.427Z,0.00
2018-03-07T03:17:44.981Z,0.00
2018-03-07T03:18:44.306Z,0.00
2018-03-07T03:19:44.806Z,0.00
2018-03-07T03:20:44.414Z,0.00
2018-03-07T03:21:44.210Z,0.00
2018-03-07T03:22:45.298Z,0.00
2018-03-07T03:23:44.712Z,0.00
2018-03-07T03:24:44.149Z,0.00
2018-03-07T03:25:44.099Z,0.00
2018-03-07T03:26:44.104Z,0.00
2018-03-07T03:27:44.095Z,0.00
2018-03-07T03:28:44.751Z,0.00
2018-03-07T03:29:44.283Z,0.00
2018-03-07T03:30:44.008Z,0.00
2018-03-07T03:31:44.593Z,0.00
2018-03-07T03:32:43.932Z,0.00
2018-03-07T03:33:43.934Z,0.00
2018-03-07T03:34:44.302Z,0.00
2018-03-07T03:35:43.968Z,0.00
2018-03-07T03:36:44.282Z,0.00
2018-03-07T03:37:43.813Z,0.00
2018-03-07T03:38:43.912Z,0.00
2018-03-07T03:39:43.803Z,0.00
2018-03-07T03:40:44.284Z,0.00
2018-03-07T03:41:43.818Z,0.00
2018-03-07T03:42:44.189Z,0.00
2018-03-07T03:43:44.785Z,0.00
2018-03-07T03:44:43.898Z,0.00
2018-03-07T03:45:46.126Z,0.00
2018-03-07T03:46:44.456Z,0.00
2018-03-07T03:47:43.525Z,0.00
2018-03-07T03:48:43.492Z,0.00
2018-03-07T03:49:43.457Z,0.00
2018-03-07T03:50:45.220Z,0.00
2018-03-07T03:51:43.550Z,0.00
2018-03-07T03:52:43.374Z,0.00
2018-03-07T03:53:43.356Z,0.00
2018-03-07T03:54:43.322Z,0.00
2018-03-07T03:55:43.318Z,0.00
2018-03-07T03:56:43.269Z,0.00
2018-03-07T03:57:43.451Z,0.00
2018-03-07T03:58:43.492Z,0.00
2018-03-07T03:59:43.173Z,0.00
2018-03-07T04:00:43.168Z,0.00
2018-03-07T04:01:43.176Z,0.00
2018-03-07T04:02:43.157Z,0.00
2018-03-07T04:03:43.280Z,0.00
2018-03-07T04:04:43.042Z,0.00
2018-03-07T04:05:43.032Z,0.00
2018-03-07T04:06:43.760Z,0.00
2018-03-07T04:07:43.052Z,0.00
2018-03-07T04:08:42.998Z,0.00
2018-03-07T04:09:43.523Z,0.00
2018-03-07T04:10:44.094Z,0.00
2018-03-07T04:11:44.657Z,0.00
2018-03-07T04:12:44.678Z,0.00
2018-03-07T04:13:42.815Z,0.00
2018-03-07T04:14:42.794Z,0.00
2018-03-07T04:15:42.891Z,0.00
2018-03-07T04:16:42.730Z,0.00
2018-03-07T04:17:42.689Z,0.00
2018-03-07T04:18:42.666Z,0.00
2018-03-07T04:19:42.635Z,0.00
2018-03-07T04:20:42.758Z,0.00
2018-03-07T04:21:42.586Z,0.00
2018-03-07T04:22:42.719Z,0.00
2018-03-07T04:23:42.529Z,0.00
2018-03-07T04:24:42.519Z,0.00
2018-03-07T04:25:42.634Z,0.00
2018-03-07T04:26:42.456Z,0.00
2018-03-07T04:27:42.459Z,0.00
2018-03-07T04:28:42.397Z,0.00
2018-03-07T04:29:42.370Z,0.00
2018-03-07T04:30:42.337Z,0.00
2018-03-07T04:31:42.459Z,0.00
2018-03-07T04:32:42.295Z,0.00
2018-03-07T04:33:42.265Z,0.00
2018-03-07T04:34:42.236Z,0.00
2018-03-07T04:35:42.191Z,0.00
2018-03-07T04:36:42.176Z,0.00
2018-03-07T04:37:42.308Z,0.00
2018-03-07T04:38:42.140Z,0.00
2018-03-07T04:39:43.757Z,0.00
2018-03-07T04:40:43.441Z,0.00
2018-03-07T04:41:43.547Z,0.00
2018-03-07T04:42:42.098Z,0.00
2018-03-07T04:43:42.185Z,0.00
2018-03-07T04:44:41.950Z,0.00
2018-03-07T04:45:43.414Z,0.00
2018-03-07T04:46:43.579Z,0.00
2018-03-07T04:47:41.905Z,0.00
2018-03-07T04:48:44.191Z,0.00
2018-03-07T04:49:42.944Z,0.00
2018-03-07T04:50:41.822Z,0.00
2018-03-07T04:51:41.800Z,0.00
2018-03-07T04:52:41.734Z,0.00
2018-03-07T04:53:41.706Z,0.00
2018-03-07T04:54:41.909Z,0.00
2018-03-07T04:55:41.732Z,0.00
2018-03-07T04:56:41.632Z,0.00
2018-03-07T04:57:41.613Z,0.00
2018-03-07T04:58:41.594Z,0.00
2018-03-07T04:59:41.747Z,0.00
2018-03-07T05:00:41.514Z,0.00
2018-03-07T05:01:41.483Z,0.00
2018-03-07T05:02:41.520Z,0.00
2018-03-07T05:03:41.429Z,0.00
2018-03-07T05:04:41.404Z,0.00
2018-03-07T05:05:41.518Z,0.00
2018-03-07T05:06:41.340Z,0.00
2018-03-07T05:07:41.337Z,0.00
2018-03-07T05:08:41.295Z,0.00
2018-03-07T05:09:41.286Z,0.00
2018-03-07T05:10:41.326Z,0.00
2018-03-07T05:11:41.391Z,0.00
2018-03-07T05:12:41.198Z,0.00
2018-03-07T05:13:41.142Z,0.00
2018-03-07T05:14:41.120Z,0.00
2018-03-07T05:15:41.113Z,0.00
2018-03-07T05:16:41.135Z,0.00
2018-03-07T05:17:41.199Z,0.00
2018-03-07T05:18:41.019Z,0.00
2018-03-07T05:19:40.982Z,0.00
2018-03-07T05:20:40.986Z,0.00
2018-03-07T05:21:40.948Z,0.00
2018-03-07T05:22:41.102Z,0.00
2018-03-07T05:23:40.890Z,0.00
2018-03-07T05:24:40.856Z,0.00
2018-03-07T05:25:40.828Z,0.00
2018-03-07T05:26:40.813Z,0.00
2018-03-07T05:27:40.990Z,0.00
2018-03-07T05:28:40.757Z,0.00
2018-03-07T05:29:40.704Z,0.00
2018-03-07T05:30:40.697Z,0.00
2018-03-07T05:31:40.659Z,0.00
2018-03-07T05:32:40.855Z,0.00
2018-03-07T05:33:40.843Z,0.00
2018-03-07T05:34:40.801Z,0.00
2018-03-07T05:35:41.166Z,0.00
2018-03-07T05:36:40.987Z,0.00
2018-03-07T05:37:40.837Z,0.00
2018-03-07T05:38:40.576Z,0.00
2018-03-07T05:39:40.506Z,0.00
2018-03-07T05:40:40.500Z,0.00
2018-03-07T05:41:40.451Z,0.00
2018-03-07T05:42:40.378Z,0.00
2018-03-07T05:43:40.616Z,0.00
2018-03-07T05:44:40.332Z,0.00
2018-03-07T05:45:40.386Z,0.00
2018-03-07T05:46:40.242Z,0.00
2018-03-07T05:47:40.218Z,0.00
2018-03-07T05:48:40.190Z,0.00
2018-03-07T05:49:40.384Z,0.00
2018-03-07T05:50:40.130Z,0.00
2018-03-07T05:51:40.114Z,0.00
2018-03-07T05:52:40.085Z,0.00
2018-03-07T05:53:40.066Z,0.00
2018-03-07T05:54:40.191Z,0.00
2018-03-07T05:55:40.013Z,0.00
2018-03-07T05:56:39.975Z,0.00
2018-03-07T05:57:39.955Z,0.00
2018-03-07T05:58:39.933Z,0.00
2018-03-07T05:59:40.062Z,0.00
2018-03-07T06:00:39.878Z,0.00
2018-03-07T06:01:39.857Z,0.00
2018-03-07T06:02:39.827Z,0.00
2018-03-07T06:03:39.793Z,0.00
2018-03-07T06:04:39.909Z,0.00
2018-03-07T06:05:39.744Z,0.00
2018-03-07T06:06:39.724Z,0.00
2018-03-07T06:07:39.685Z,0.00
2018-03-07T06:08:39.643Z,0.00
2018-03-07T06:09:39.819Z,0.00
2018-03-07T06:10:39.606Z,0.00
2018-03-07T06:11:39.559Z,0.00
2018-03-07T06:12:39.548Z,0.00
2018-03-07T06:13:39.510Z,0.00
2018-03-07T06:14:39.690Z,0.00
2018-03-07T06:15:39.460Z,0.00
2018-03-07T06:16:39.422Z,0.00
2018-03-07T06:17:39.403Z,0.00
2018-03-07T06:18:39.364Z,0.00
2018-03-07T06:19:39.346Z,0.00
2018-03-07T06:20:39.511Z,0.00
2018-03-07T06:21:39.298Z,0.00
2018-03-07T06:22:39.853Z,0.00
2018-03-07T06:23:39.245Z,0.00
2018-03-07T06:24:39.220Z,0.00
2018-03-07T06:25:39.191Z,0.00
2018-03-07T06:26:39.318Z,0.00
2018-03-07T06:27:39.122Z,0.00
2018-03-07T06:28:39.111Z,0.00
2018-03-07T06:29:39.070Z,0.00
2018-03-07T06:30:39.056Z,0.00
2018-03-07T06:31:39.163Z,0.00
2018-03-07T06:32:38.979Z,0.00
2018-03-07T06:33:38.972Z,0.00
2018-03-07T06:34:38.965Z,0.00
2018-03-07T06:35:38.922Z,0.00
2018-03-07T06:36:39.040Z,0.00
2018-03-07T06:37:38.867Z,0.00
2018-03-07T06:38:38.835Z,0.00
2018-03-07T06:39:38.813Z,0.00
2018-03-07T06:40:38.761Z,0.00
2018-03-07T06:41:38.905Z,0.00
2018-03-07T06:42:38.711Z,0.00
2018-03-07T06:43:38.704Z,0.00
2018-03-07T06:44:38.673Z,0.00
2018-03-07T06:45:38.636Z,0.00
2018-03-07T06:46:38.759Z,0.00
2018-03-07T06:47:38.598Z,0.00
2018-03-07T06:48:38.549Z,0.00
2018-03-07T06:49:38.530Z,0.00
2018-03-07T06:50:38.517Z,0.00
2018-03-07T06:51:38.664Z,0.00
2018-03-07T06:52:38.461Z,0.00
2018-03-07T06:53:38.420Z,0.00
2018-03-07T06:54:38.385Z,0.00
2018-03-07T06:55:38.378Z,0.00
2018-03-07T06:56:38.348Z,0.00
2018-03-07T06:57:38.509Z,0.00
2018-03-07T06:58:38.300Z,0.00
2018-03-07T06:59:38.251Z,0.00
2018-03-07T07:00:38.224Z,0.00
2018-03-07T07:01:38.205Z,0.00
2018-03-07T07:02:38.188Z,0.00
2018-03-07T07:03:38.320Z,0.00
2018-03-07T07:04:38.129Z,0.00
2018-03-07T07:05:38.095Z,0.00
2018-03-07T07:06:38.058Z,0.00
2018-03-07T07:07:38.037Z,0.00
2018-03-07T07:08:38.169Z,0.00
2018-03-07T07:09:37.972Z,0.00
2018-03-07T07:10:37.957Z,0.00
2018-03-07T07:11:37.992Z,0.00
2018-03-07T07:12:37.906Z,0.00
2018-03-07T07:13:38.074Z,0.00
2018-03-07T07:14:37.861Z,0.00
2018-03-07T07:15:37.832Z,0.00
2018-03-07T07:16:37.781Z,0.00
2018-03-07T07:17:37.762Z,0.00
2018-03-07T07:18:37.947Z,0.00
2018-03-07T07:19:37.720Z,0.00
2018-03-07T07:20:37.695Z,0.00
2018-03-07T07:21:37.664Z,0.00
2018-03-07T07:22:37.640Z,0.00
2018-03-07T07:23:37.649Z,0.00
2018-03-07T07:24:37.783Z,0.00
2018-03-07T07:25:37.555Z,0.00
2018-03-07T07:26:37.519Z,0.00
2018-03-07T07:27:37.499Z,0.00
2018-03-07T07:28:37.457Z,0.00
2018-03-07T07:29:37.446Z,0.00
2018-03-07T07:30:37.619Z,0.00
2018-03-07T07:31:37.391Z,0.00
2018-03-07T07:32:37.356Z,0.00
2018-03-07T07:33:37.338Z,0.00
2018-03-07T07:34:37.299Z,0.00
2018-03-07T07:35:37.270Z,0.00
2018-03-07T07:36:37.413Z,0.00
2018-03-07T07:37:37.232Z,0.00
2018-03-07T07:38:37.199Z,0.00
2018-03-07T07:39:37.171Z,0.00
2018-03-07T07:40:37.143Z,0.00
2018-03-07T07:41:37.267Z,0.00
2018-03-07T07:42:37.078Z,0.00
2018-03-07T07:43:37.035Z,0.00
2018-03-07T07:44:37.007Z,0.00
2018-03-07T07:45:37.004Z,0.00
2018-03-07T07:46:37.157Z,0.00
2018-03-07T07:47:36.933Z,0.00
2018-03-07T07:48:36.982Z,0.00
2018-03-07T07:49:36.886Z,0.00
2018-03-07T07:50:36.869Z,0.00
2018-03-07T07:51:37.027Z,0.00
2018-03-07T07:52:36.792Z,0.00
2018-03-07T07:53:36.775Z,0.00
2018-03-07T07:54:36.745Z,0.00
2018-03-07T07:55:36.711Z,0.00
2018-03-07T07:56:36.685Z,0.00
2018-03-07T07:57:36.863Z,0.00
2018-03-07T07:58:36.626Z,0.00
2018-03-07T07:59:36.608Z,0.00
2018-03-07T08:00:36.585Z,0.00
2018-03-07T08:01:36.565Z,0.00
2018-03-07T08:02:36.585Z,0.00
2018-03-07T08:03:36.687Z,0.00
2018-03-07T08:04:36.469Z,0.00
2018-03-07T08:05:36.450Z,0.00
2018-03-07T08:06:36.428Z,0.00
2018-03-07T08:07:36.386Z,0.00
2018-03-07T08:08:36.369Z,0.00
2018-03-07T08:09:36.544Z,0.00
2018-03-07T08:10:36.299Z,0.00
2018-03-07T08:11:36.279Z,0.00
2018-03-07T08:12:36.262Z,0.00
2018-03-07T08:13:36.218Z,0.00
2018-03-07T08:14:36.188Z,0.00
2018-03-07T08:15:36.368Z,0.00
2018-03-07T08:16:36.133Z,0.00
2018-03-07T08:17:36.112Z,0.00
2018-03-07T08:18:36.088Z,0.00
2018-03-07T08:19:36.067Z,0.00
2018-03-07T08:20:36.220Z,0.00
2018-03-07T08:21:35.993Z,0.00
2018-03-07T08:22:35.964Z,0.00
2018-03-07T08:23:35.942Z,0.00
2018-03-07T08:24:35.918Z,0.00
2018-03-07T08:25:36.089Z,0.00
2018-03-07T08:26:35.837Z,0.00
2018-03-07T08:27:35.834Z,0.00
2018-03-07T08:28:35.788Z,0.00
2018-03-07T08:29:35.758Z,0.00
2018-03-07T08:30:35.803Z,0.00
2018-03-07T08:31:35.922Z,0.00
2018-03-07T08:32:35.695Z,0.00
2018-03-07T08:33:35.664Z,0.00
2018-03-07T08:34:35.628Z,0.00
2018-03-07T08:35:35.602Z,0.00
2018-03-07T08:36:35.634Z,0.00
2018-03-07T08:37:35.703Z,0.00
2018-03-07T08:38:35.525Z,0.00
2018-03-07T08:39:35.499Z,0.00
2018-03-07T08:40:35.456Z,0.00
2018-03-07T08:41:35.429Z,0.00
2018-03-07T08:42:35.413Z,0.00
2018-03-07T08:43:35.510Z,0.00
2018-03-07T08:44:35.340Z,0.00
2018-03-07T08:45:35.302Z,0.00
2018-03-07T08:46:35.283Z,0.00
2018-03-07T08:47:35.362Z,0.00
2018-03-07T08:48:35.244Z,0.00
2018-03-07T08:49:35.416Z,0.00
2018-03-07T08:50:35.186Z,0.00
2018-03-07T08:51:35.160Z,0.00
2018-03-07T08:52:35.126Z,0.00
2018-03-07T08:53:35.092Z,0.00
2018-03-07T08:54:35.277Z,0.00
2018-03-07T08:55:35.072Z,0.00
2018-03-07T08:56:35.018Z,0.00
2018-03-07T08:57:34.964Z,0.00
2018-03-07T08:58:34.952Z,0.00
2018-03-07T08:59:35.073Z,0.00
2018-03-07T09:00:34.893Z,0.00
2018-03-07T09:01:34.861Z,0.00
2018-03-07T09:02:34.856Z,0.00
2018-03-07T09:03:34.813Z,0.00
2018-03-07T09:04:34.828Z,0.00
2018-03-07T09:05:34.894Z,0.00
2018-03-07T09:06:34.731Z,0.00
2018-03-07T09:07:34.705Z,0.00
2018-03-07T09:08:34.665Z,0.00
2018-03-07T09:09:34.651Z,0.00
2018-03-07T09:10:34.659Z,0.00
2018-03-07T09:11:34.843Z,0.00
2018-03-07T09:12:34.562Z,0.00
2018-03-07T09:13:34.587Z,0.00
2018-03-07T09:14:34.490Z,0.00
2018-03-07T09:15:34.505Z,0.00
2018-03-07T09:16:34.431Z,0.00
2018-03-07T09:17:34.551Z,0.00
2018-03-07T09:18:34.393Z,0.00
2018-03-07T09:19:34.357Z,0.00
2018-03-07T09:20:34.330Z,0.00
2018-03-07T09:21:34.290Z,0.00
2018-03-07T09:22:34.332Z,0.00
2018-03-07T09:23:34.441Z,0.00
2018-03-07T09:24:34.289Z,0.00
2018-03-07T09:25:34.173Z,0.00
2018-03-07T09:26:34.167Z,0.00
2018-03-07T09:27:34.127Z,0.00
2018-03-07T09:28:34.282Z,0.00
2018-03-07T09:29:34.080Z,0.00
2018-03-07T09:30:34.041Z,0.00
2018-03-07T09:31:34.003Z,0.00
2018-03-07T09:32:34.031Z,0.00
2018-03-07T09:33:34.225Z,0.00
2018-03-07T09:34:33.931Z,0.00
2018-03-07T09:35:33.890Z,0.00
2018-03-07T09:36:33.871Z,0.00
2018-03-07T09:37:33.836Z,0.00
2018-03-07T09:38:33.819Z,0.00
2018-03-07T09:39:33.982Z,0.00
2018-03-07T09:40:33.761Z,0.00
2018-03-07T09:41:33.730Z,0.00
2018-03-07T09:42:33.687Z,0.00
2018-03-07T09:43:33.684Z,0.00
2018-03-07T09:44:33.942Z,0.00
2018-03-07T09:45:33.618Z,0.00
2018-03-07T09:46:33.599Z,0.00
2018-03-07T09:47:33.542Z,0.00
2018-03-07T09:48:33.593Z,0.00
2018-03-07T09:49:33.698Z,0.00
2018-03-07T09:50:33.463Z,0.00
2018-03-07T09:51:33.452Z,0.00
2018-03-07T09:52:33.410Z,0.00
2018-03-07T09:53:33.368Z,0.00
2018-03-07T09:54:33.346Z,0.00
2018-03-07T09:55:33.509Z,0.00
2018-03-07T09:56:33.414Z,0.00
2018-03-07T09:57:33.274Z,0.00
2018-03-07T09:58:33.242Z,0.00
2018-03-07T09:59:33.246Z,0.00
2018-03-07T10:00:33.264Z,0.00
2018-03-07T10:01:33.386Z,0.00
2018-03-07T10:02:33.116Z,0.00
2018-03-07T10:03:33.113Z,0.00
2018-03-07T10:04:33.066Z,0.00
2018-03-07T10:05:33.035Z,0.00
2018-03-07T10:06:33.059Z,0.00
2018-03-07T10:07:33.188Z,0.00
2018-03-07T10:08:32.960Z,0.00
2018-03-07T10:09:32.934Z,0.00
2018-03-07T10:10:32.909Z,0.00
2018-03-07T10:11:32.870Z,0.00
2018-03-07T10:12:32.895Z,0.00
2018-03-07T10:13:33.120Z,0.00
2018-03-07T10:14:32.843Z,0.00
2018-03-07T10:15:32.772Z,0.00
2018-03-07T10:16:32.780Z,0.00
2018-03-07T10:17:32.711Z,0.00
2018-03-07T10:18:32.911Z,0.00
2018-03-07T10:19:32.636Z,0.00
2018-03-07T10:20:32.602Z,0.00
2018-03-07T10:21:32.620Z,0.00
2018-03-07T10:22:32.558Z,0.00
2018-03-07T10:23:32.778Z,0.00
2018-03-07T10:24:32.500Z,0.00
2018-03-07T10:25:32.461Z,0.00
2018-03-07T10:26:32.438Z,0.00
2018-03-07T10:27:32.421Z,0.00
2018-03-07T10:28:32.386Z,0.00
2018-03-07T10:29:32.511Z,0.00
2018-03-07T10:30:32.362Z,0.00
2018-03-07T10:31:32.301Z,0.00
2018-03-07T10:32:32.253Z,0.00
2018-03-07T10:33:32.236Z,0.00
2018-03-07T10:34:32.203Z,0.00
2018-03-07T10:35:32.379Z,0.00
2018-03-07T10:36:32.160Z,0.00
2018-03-07T10:37:32.133Z,0.00
2018-03-07T10:38:32.103Z,0.00
2018-03-07T10:39:32.065Z,0.00
2018-03-07T10:40:32.098Z,0.00
2018-03-07T10:41:32.265Z,0.00
2018-03-07T10:42:31.978Z,0.00
2018-03-07T10:43:31.945Z,0.00
2018-03-07T10:44:31.938Z,0.00
2018-03-07T10:45:31.905Z,0.00
2018-03-07T10:46:31.879Z,0.00
2018-03-07T10:47:32.027Z,0.00
2018-03-07T10:48:31.806Z,0.00
2018-03-07T10:49:31.786Z,0.00
2018-03-07T10:50:31.750Z,0.00
2018-03-07T10:51:31.738Z,0.00
2018-03-07T10:52:32.011Z,0.00
2018-03-07T10:53:31.664Z,0.00
2018-03-07T10:54:31.630Z,0.00
2018-03-07T10:55:31.638Z,0.00
2018-03-07T10:56:31.591Z,0.00
2018-03-07T10:57:31.708Z,0.00
2018-03-07T10:58:31.578Z,0.00
2018-03-07T10:59:31.500Z,0.00
2018-03-07T11:00:31.479Z,0.00
2018-03-07T11:01:31.448Z,0.00
2018-03-07T11:02:31.432Z,0.00
2018-03-07T11:03:31.597Z,0.00
2018-03-07T11:04:31.456Z,0.00
2018-03-07T11:05:31.331Z,0.00
2018-03-07T11:06:31.346Z,0.00
2018-03-07T11:07:31.280Z,0.00
2018-03-07T11:08:31.233Z,0.00
2018-03-07T11:09:31.410Z,0.00
2018-03-07T11:10:31.190Z,0.00
2018-03-07T11:11:31.151Z,0.00
2018-03-07T11:12:31.126Z,0.00
2018-03-07T11:13:31.101Z,0.00
2018-03-07T11:14:31.123Z,0.00
2018-03-07T11:15:31.194Z,0.00
2018-03-07T11:16:31.022Z,0.00
2018-03-07T11:17:30.973Z,0.00
2018-03-07T11:18:30.958Z,0.00
2018-03-07T11:19:30.931Z,0.00
2018-03-07T11:20:31.154Z,0.00
2018-03-07T11:21:30.907Z,0.00
2018-03-07T11:22:30.837Z,0.00
2018-03-07T11:23:30.861Z,0.00
2018-03-07T11:24:30.789Z,0.00
2018-03-07T11:25:30.893Z,0.00
2018-03-07T11:26:30.728Z,0.00
2018-03-07T11:27:30.766Z,0.00
2018-03-07T11:28:30.686Z,0.00
2018-03-07T11:29:30.640Z,0.00
2018-03-07T11:30:30.793Z,0.00
2018-03-07T11:31:30.600Z,0.00
2018-03-07T11:32:30.564Z,0.00
2018-03-07T11:33:30.518Z,0.00
2018-03-07T11:34:30.568Z,0.00
2018-03-07T11:35:30.483Z,4.00
2018-03-07T11:36:30.647Z,0.00
2018-03-07T11:37:30.409Z,0.00
2018-03-07T11:38:30.402Z,4.00
2018-03-07T11:39:30.369Z,4.00
2018-03-07T11:40:30.338Z,4.00
2018-03-07T11:41:30.304Z,4.00
2018-03-07T11:42:30.486Z,4.00
2018-03-07T11:43:31.682Z,12.00
2018-03-07T11:44:30.474Z,12.00
2018-03-07T11:45:30.181Z,12.00
2018-03-07T11:46:30.847Z,16.00
2018-03-07T11:47:31.867Z,20.00
2018-03-07T11:48:31.297Z,24.00
2018-03-07T11:49:30.152Z,28.00
2018-03-07T11:50:30.640Z,32.00
2018-03-07T11:51:30.013Z,36.00
2018-03-07T11:52:30.035Z,44.00
2018-03-07T11:53:30.307Z,52.00
2018-03-07T11:54:29.930Z,56.00
2018-03-07T11:55:29.915Z,64.00
2018-03-07T11:56:29.862Z,72.00
2018-03-07T11:57:29.843Z,80.00
2018-03-07T11:58:30.017Z,92.00
2018-03-07T11:59:29.808Z,100.00
2018-03-07T12:00:29.797Z,108.00
2018-03-07T12:01:29.778Z,120.00
2018-03-07T12:02:29.818Z,128.00
2018-03-07T12:03:29.893Z,144.00
2018-03-07T12:04:29.638Z,152.00
2018-03-07T12:05:29.692Z,172.00
2018-03-07T12:06:29.633Z,180.00
2018-03-07T12:07:29.709Z,192.00
2018-03-07T12:08:29.830Z,200.00
2018-03-07T12:09:29.550Z,216.00
2018-03-07T12:10:29.486Z,228.00
2018-03-07T12:11:29.637Z,240.00
2018-03-07T12:12:29.492Z,256.00
2018-03-07T12:13:29.452Z,276.00
2018-03-07T12:14:29.759Z,288.00
2018-03-07T12:15:31.178Z,312.00
2018-03-07T12:16:29.366Z,336.00
2018-03-07T12:17:29.294Z,352.00
2018-03-07T12:18:29.274Z,368.00
2018-03-07T12:19:29.290Z,380.00
2018-03-07T12:20:29.400Z,396.00
2018-03-07T12:21:29.162Z,420.00
2018-03-07T12:22:30.963Z,436.00
2018-03-07T12:23:30.889Z,452.00
2018-03-07T12:24:31.063Z,476.00
2018-03-07T12:25:29.735Z,492.00
2018-03-07T12:26:31.723Z,512.00
2018-03-07T12:27:31.086Z,532.00
2018-03-07T12:28:30.730Z,556.00
2018-03-07T12:29:30.664Z,576.00
2018-03-07T12:30:28.916Z,596.00
2018-03-07T12:31:28.882Z,608.00
2018-03-07T12:32:29.077Z,624.00
2018-03-07T12:33:28.834Z,648.00
2018-03-07T12:34:28.787Z,676.00
2018-03-07T12:35:28.781Z,700.00
2018-03-07T12:36:28.759Z,720.00
2018-03-07T12:37:28.870Z,736.00
2018-03-07T12:38:28.680Z,756.00
2018-03-07T12:39:28.661Z,792.00
2018-03-07T12:40:28.625Z,836.00
2018-03-07T12:41:28.602Z,980.00
2018-03-07T12:42:30.525Z,1296.00
2018-03-07T12:43:29.126Z,1904.00
2018-03-07T12:44:29.986Z,2932.00
2018-03-07T12:45:29.508Z,2364.00
2018-03-07T12:46:29.113Z,1168.00
2018-03-07T12:47:28.458Z,1316.00
2018-03-07T12:48:28.607Z,2588.00
2018-03-07T12:49:28.385Z,4364.00
2018-03-07T12:50:28.369Z,4448.00
2018-03-07T12:51:28.435Z,3640.00
2018-03-07T12:52:28.408Z,2812.00
2018-03-07T12:53:28.370Z,3076.00
2018-03-07T12:54:28.551Z,4468.00
2018-03-07T12:55:28.325Z,4844.00
2018-03-07T12:56:28.210Z,5052.00
2018-03-07T12:57:28.294Z,4920.00
2018-03-07T12:58:28.186Z,4124.00
2018-03-07T12:59:28.150Z,2616.00
2018-03-07T13:00:28.355Z,2236.00
2018-03-07T13:01:28.120Z,2000.00
2018-03-07T13:02:28.103Z,1688.00
2018-03-07T13:03:28.004Z,1448.00
2018-03-07T13:04:27.992Z,1332.00
2018-03-07T13:05:28.059Z,1276.00
2018-03-07T13:06:27.931Z,1280.00
2018-03-07T13:07:27.904Z,1284.00
2018-03-07T13:08:27.873Z,1288.00
2018-03-07T13:09:27.853Z,1300.00
2018-03-07T13:10:27.988Z,1328.00
2018-03-07T13:11:27.806Z,1348.00
2018-03-07T13:12:27.874Z,1340.00